Shuri — JL6688 — position and weather

sailwx.info

Track history (hours):
 
Tides and Currents Weather Stations Pressure Air Temp Water Temp Dewpoint Dewpoint Depression Visibility Wind Speed Wind Dir Waves Ship Positions

Shuri

Last reported at 2017-Oct-17 15:16 UTC. Time now 2017-Oct-19 05:31 UTC.
Position N 33°54' E 134°54'.

Length 167 m; draft 6.4 m.

Type: Cargo ship. MMSI: 431501723.

Date/timePositionNaut miles runAvg speedWind from/ knotsBaromVisibWave heightAir tempDewpointWater temp
2017-Oct-17 15:16N 33°54' E 134°54'621.6
2017-Oct-17 14:59N 33°60' E 134°55'1021.6
2017-Oct-17 14:31N 34°10' E 134°57'1221.3
2017-Oct-17 13:58N 34°21' E 134°60'1021.5
2017-Oct-17 13:30N 34°27' E 135°09'1019.7
2017-Oct-17 13:00N 34°35' E 135°18'612.7
2017-Oct-17 12:30N 34°37' E 135°25'1 1.8
2017-Oct-17 12:00N 34°37' E 135°26'0 0.1
2017-Oct-17 11:21N 34°37' E 135°26'0 0.0
2017-Oct-17 10:51N 34°37' E 135°26'0 0.1
2017-Oct-17 10:27N 34°37' E 135°26'0 0.1
2017-Oct-17 09:57N 34°37' E 135°26'0 0.0
2017-Oct-17 09:03N 34°37' E 135°26'0 0.0
2017-Oct-17 08:51N 34°37' E 135°26'0 0.0
2017-Oct-17 08:27N 34°37' E 135°26'0 0.0
2017-Oct-17 07:57N 34°37' E 135°26'0 0.0
2017-Oct-17 07:21N 34°37' E 135°26'0 0.0
2017-Oct-17 06:45N 34°37' E 135°26'0 0.2
2017-Oct-17 06:27N 34°37' E 135°26'0 0.0
2017-Oct-17 05:57N 34°37' E 135°26'0 0.0
2017-Oct-17 05:21N 34°37' E 135°26'0 0.1
2017-Oct-17 04:57N 34°37' E 135°26'0 0.1
2017-Oct-17 04:30N 34°37' E 135°26'4 7.3
2017-Oct-17 04:00N 34°37' E 135°21'1020.2
2017-Oct-17 03:30N 34°30' E 135°13'1019.8
2017-Oct-17 03:00N 34°22' E 135°05'918.0
2017-Oct-17 02:30N 34°14' E 134°59'1019.8
2017-Oct-17 02:00N 34°05' E 135°01'21917.1
2017-Oct-16 13:14N 34°49' E 139°21'518.9
2017-Oct-16 12:58N 34°52' E 139°26'919.3
2017-Oct-16 12:30N 34°58' E 139°33'1020.9
2017-Oct-16 12:00N 35°06' E 139°42'816.6
2017-Oct-16 11:31N 35°14' E 139°46'612.4
2017-Oct-16 11:01N 35°19' E 139°43'815.3
2017-Oct-16 10:31N 35°26' E 139°46'815.3
2017-Oct-16 10:01N 35°33' E 139°50'5 8.5
2017-Oct-16 09:29N 35°37' E 139°47'0 0.0
2017-Oct-16 04:12N 35°37' E 139°47'0 0.0
2017-Oct-16 02:12N 35°37' E 139°47'0 0.0
2017-Oct-16 00:24N 35°37' E 139°47'0 0.0
2017-Oct-15 23:03N 35°37' E 139°47'0 0.1
2017-Oct-15 22:58N 35°37' E 139°47'2 4.9
2017-Oct-15 22:30N 35°35' E 139°48'4 7.6
2017-Oct-15 22:00N 35°34' E 139°52'0 0.4
2017-Oct-15 21:30N 35°34' E 139°52'0 0.0
2017-Oct-15 21:00N 35°34' E 139°52'0 0.0
2017-Oct-15 20:24N 35°34' E 139°52'0 0.0
2017-Oct-15 20:00N 35°34' E 139°52'0 0.0
2017-Oct-15 19:30N 35°34' E 139°52'0 0.0
2017-Oct-15 19:00N 35°34' E 139°52'0 0.0
2017-Oct-15 18:30N 35°34' E 139°52'0 0.0
2017-Oct-15 18:00N 35°34' E 139°52'0 0.0
2017-Oct-15 17:27N 35°34' E 139°52'0 0.0
2017-Oct-15 17:00N 35°34' E 139°52'0 0.0
2017-Oct-15 16:30N 35°34' E 139°52'0 0.0
2017-Oct-15 15:51N 35°34' E 139°52'0 0.0
2017-Oct-15 15:30N 35°34' E 139°52'0 0.0
2017-Oct-15 15:00N 35°34' E 139°52'0 0.0
2017-Oct-15 13:51N 35°34' E 139°52'0 0.0
2017-Oct-15 13:27N 35°34' E 139°52'0 0.0
2017-Oct-15 12:57N 35°34' E 139°52'0 0.0
2017-Oct-15 12:21N 35°34' E 139°52'0 0.0
2017-Oct-15 12:00N 35°34' E 139°52'0 0.0
2017-Oct-15 11:18N 35°34' E 139°52'0 0.0
2017-Oct-15 11:00N 35°34' E 139°52'0 0.0
2017-Oct-15 10:30N 35°34' E 139°52'0 0.0
2017-Oct-15 10:00N 35°34' E 139°52'0 0.0
2017-Oct-15 09:30N 35°34' E 139°52'0 0.1
2017-Oct-15 09:00N 35°34' E 139°52'0 0.0
2017-Oct-15 08:30N 35°34' E 139°52'0 0.0
2017-Oct-15 08:00N 35°34' E 139°52'0 0.1
2017-Oct-15 07:21N 35°34' E 139°52'0 0.0
2017-Oct-15 07:00N 35°34' E 139°52'0 0.0
2017-Oct-15 06:30N 35°34' E 139°52'0 0.1
2017-Oct-15 05:54N 35°34' E 139°52'0 0.0
2017-Oct-15 05:27N 35°34' E 139°52'0 0.1
2017-Oct-15 05:00N 35°34' E 139°52'0 0.0
2017-Oct-15 04:27N 35°34' E 139°52'0 0.0
2017-Oct-15 04:00N 35°34' E 139°52'0 0.0
2017-Oct-15 03:24N 35°34' E 139°52'0 0.0
2017-Oct-15 03:00N 35°34' E 139°52'0 0.0
2017-Oct-15 02:30N 35°34' E 139°52'0 0.0
2017-Oct-15 02:00N 35°34' E 139°52'0 0.0
2017-Oct-15 01:30N 35°34' E 139°52'0 0.0
2017-Oct-15 01:00N 35°34' E 139°52'0 0.0
2017-Oct-15 00:30N 35°34' E 139°52'0 0.0
2017-Oct-14 23:58N 35°34' E 139°52'4 9.8
2017-Oct-14 23:30N 35°30' E 139°52'815.1
2017-Oct-14 23:00N 35°24' E 139°46'612.1
2017-Oct-14 22:30N 35°18' E 139°45'612.1
2017-Oct-14 22:01N 35°12' E 139°47'816.7
2017-Oct-14 21:30N 35°04' E 139°44'917.6
2017-Oct-14 21:00N 34°58' E 139°37'1019.2
2017-Oct-14 20:29N 34°53' E 139°26'22815.8
2017-Oct-14 06:04N 33°53' E 134°59'218.9
2017-Oct-14 05:58N 33°55' E 134°59'918.4
2017-Oct-14 05:30N 34°04' E 134°58'918.5
2017-Oct-14 05:00N 34°13' E 134°58'1017.5
2017-Oct-14 04:27N 34°23' E 135°01'818.3
2017-Oct-14 04:00N 34°28' E 135°08'918.5
2017-Oct-14 03:30N 34°34' E 135°17'714.1
2017-Oct-14 03:00N 34°37' E 135°24'1 1.8
2017-Oct-14 02:25N 34°37' E 135°26'0 0.1
2017-Oct-14 01:55N 34°37' E 135°26'0 0.0
2017-Oct-14 01:19N 34°37' E 135°26'0 0.1
2017-Oct-14 00:55N 34°37' E 135°26'0 0.0
2017-Oct-14 00:25N 34°37' E 135°26'0 0.0
2017-Oct-13 23:55N 34°37' E 135°26'0 0.1
2017-Oct-13 23:25N 34°37' E 135°26'0 0.0
2017-Oct-13 22:55N 34°37' E 135°26'0 0.1
2017-Oct-13 22:19N 34°37' E 135°26'0 0.0
2017-Oct-13 22:00N 34°37' E 135°26'2 4.3
2017-Oct-13 21:30N 34°38' E 135°23'816.2
2017-Oct-13 21:00N 34°32' E 135°16'918.1
2017-Oct-13 20:30N 34°26' E 135°08'918.3
2017-Oct-13 20:00N 34°19' E 135°01'917.8
2017-Oct-13 19:30N 34°10' E 134°58'918.0
2017-Oct-13 19:00N 34°01' E 134°56'  
2017-Oct-10 13:54N 33°58' E 134°53'820.5
2017-Oct-10 13:30N 34°06' E 134°56'1121.0
2017-Oct-10 13:00N 34°16' E 134°58'1019.5
2017-Oct-10 12:30N 34°25' E 135°04'1121.1
2017-Oct-10 12:00N 34°32' E 135°14'917.6
2017-Oct-10 11:30N 34°37' E 135°22'3 6.1
2017-Oct-10 11:00N 34°37' E 135°26'0 0.1
2017-Oct-10 10:22N 34°37' E 135°26'0 0.0
2017-Oct-10 09:58N 34°37' E 135°26'0 0.0
2017-Oct-10 09:22N 34°37' E 135°26'0 0.1
2017-Oct-10 08:39N 34°37' E 135°26'0 0.0
2017-Oct-10 08:27N 34°37' E 135°26'0 0.0
2017-Oct-10 07:52N 34°37' E 135°26'0 0.0
2017-Oct-10 07:21N 34°37' E 135°26'0 0.1
2017-Oct-10 06:57N 34°37' E 135°26'0 0.0
2017-Oct-10 06:27N 34°37' E 135°26'0 0.0
2017-Oct-10 05:58N 34°37' E 135°26'0 0.0
2017-Oct-10 05:27N 34°37' E 135°26'0 0.0
2017-Oct-10 04:58N 34°37' E 135°26'0 0.0
2017-Oct-10 04:30N 34°37' E 135°26'3 6.4
2017-Oct-10 04:00N 34°37' E 135°22'918.2
2017-Oct-10 03:30N 34°31' E 135°14'918.6
2017-Oct-10 03:00N 34°24' E 135°07'918.5
2017-Oct-10 02:30N 34°17' E 134°59'1019.3
2017-Oct-10 02:00N 34°07' E 135°01'21415.9
2017-Oct-09 12:32N 34°46' E 139°16'817.1
2017-Oct-09 12:05N 34°52' E 139°21'217.1
2017-Oct-09 11:59N 34°53' E 139°23'817.0
2017-Oct-09 11:30N 34°58' E 139°30'917.6
2017-Oct-09 11:00N 35°04' E 139°39'816.7
2017-Oct-09 10:30N 35°10' E 139°45'612.2
2017-Oct-09 10:00N 35°17' E 139°45'611.9
2017-Oct-09 09:30N 35°22' E 139°42'1314.0
2017-Oct-09 08:33N 35°34' E 139°48'113.1
2017-Oct-09 08:27N 35°35' E 139°47'2 0.1
2017-Oct-07 22:50N 35°37' E 139°47'2 4.7
2017-Oct-07 22:30N 35°36' E 139°47'510.7
2017-Oct-07 22:01N 35°32' E 139°52'815.4
2017-Oct-07 21:31N 35°25' E 139°47'612.5
2017-Oct-07 21:00N 35°19' E 139°44'611.7
2017-Oct-07 20:30N 35°14' E 139°47'815.9
2017-Oct-07 20:00N 35°06' E 139°45'1020.5
2017-Oct-07 19:30N 34°59' E 139°36'  
Track history (hours):
 
Tides and Currents Weather Stations Pressure Air Temp Water Temp Dewpoint Dewpoint Depression Visibility Wind Speed Wind Dir Waves Ship Positions

Shuri

Last reported at 2017-Oct-17 15:16 UTC. Time now 2017-Oct-19 05:31 UTC.
Position N 33°54' E 134°54'.

Length 167 m; draft 6.4 m.

Type: Cargo ship. MMSI: 431501723.

Date/timePositionNaut miles runAvg speedWind from/ knotsBaromVisibWave heightAir tempDewpointWater temp
2017-Oct-17 15:16N 33°54' E 134°54'621.6
2017-Oct-17 14:59N 33°60' E 134°55'1021.6
2017-Oct-17 14:31N 34°10' E 134°57'1221.3
2017-Oct-17 13:58N 34°21' E 134°60'1021.5
2017-Oct-17 13:30N 34°27' E 135°09'1019.7
2017-Oct-17 13:00N 34°35' E 135°18'612.7
2017-Oct-17 12:30N 34°37' E 135°25'1 1.8
2017-Oct-17 12:00N 34°37' E 135°26'0 0.1
2017-Oct-17 11:21N 34°37' E 135°26'0 0.0
2017-Oct-17 10:51N 34°37' E 135°26'0 0.1
2017-Oct-17 10:27N 34°37' E 135°26'0 0.1
2017-Oct-17 09:57N 34°37' E 135°26'0 0.0
2017-Oct-17 09:03N 34°37' E 135°26'0 0.0
2017-Oct-17 08:51N 34°37' E 135°26'0 0.0
2017-Oct-17 08:27N 34°37' E 135°26'0 0.0
2017-Oct-17 07:57N 34°37' E 135°26'0 0.0
2017-Oct-17 07:21N 34°37' E 135°26'0 0.0
2017-Oct-17 06:45N 34°37' E 135°26'0 0.2
2017-Oct-17 06:27N 34°37' E 135°26'0 0.0
2017-Oct-17 05:57N 34°37' E 135°26'0 0.0
2017-Oct-17 05:21N 34°37' E 135°26'0 0.1
2017-Oct-17 04:57N 34°37' E 135°26'0 0.1
2017-Oct-17 04:30N 34°37' E 135°26'4 7.3
2017-Oct-17 04:00N 34°37' E 135°21'1020.2
2017-Oct-17 03:30N 34°30' E 135°13'1019.8
2017-Oct-17 03:00N 34°22' E 135°05'918.0
2017-Oct-17 02:30N 34°14' E 134°59'1019.8
2017-Oct-17 02:00N 34°05' E 135°01'21917.1
2017-Oct-16 13:14N 34°49' E 139°21'518.9
2017-Oct-16 12:58N 34°52' E 139°26'919.3
2017-Oct-16 12:30N 34°58' E 139°33'1020.9
2017-Oct-16 12:00N 35°06' E 139°42'816.6
2017-Oct-16 11:31N 35°14' E 139°46'612.4
2017-Oct-16 11:01N 35°19' E 139°43'815.3
2017-Oct-16 10:31N 35°26' E 139°46'815.3
2017-Oct-16 10:01N 35°33' E 139°50'5 8.5
2017-Oct-16 09:29N 35°37' E 139°47'0 0.0
2017-Oct-16 04:12N 35°37' E 139°47'0 0.0
2017-Oct-16 02:12N 35°37' E 139°47'0 0.0
2017-Oct-16 00:24N 35°37' E 139°47'0 0.0
2017-Oct-15 23:03N 35°37' E 139°47'0 0.1
2017-Oct-15 22:58N 35°37' E 139°47'2 4.9
2017-Oct-15 22:30N 35°35' E 139°48'4 7.6
2017-Oct-15 22:00N 35°34' E 139°52'0 0.4
2017-Oct-15 21:30N 35°34' E 139°52'0 0.0
2017-Oct-15 21:00N 35°34' E 139°52'0 0.0
2017-Oct-15 20:24N 35°34' E 139°52'0 0.0
2017-Oct-15 20:00N 35°34' E 139°52'0 0.0
2017-Oct-15 19:30N 35°34' E 139°52'0 0.0
2017-Oct-15 19:00N 35°34' E 139°52'0 0.0
2017-Oct-15 18:30N 35°34' E 139°52'0 0.0
2017-Oct-15 18:00N 35°34' E 139°52'0 0.0
2017-Oct-15 17:27N 35°34' E 139°52'0 0.0
2017-Oct-15 17:00N 35°34' E 139°52'0 0.0
2017-Oct-15 16:30N 35°34' E 139°52'0 0.0
2017-Oct-15 15:51N 35°34' E 139°52'0 0.0
2017-Oct-15 15:30N 35°34' E 139°52'0 0.0
2017-Oct-15 15:00N 35°34' E 139°52'0 0.0
2017-Oct-15 13:51N 35°34' E 139°52'0 0.0
2017-Oct-15 13:27N 35°34' E 139°52'0 0.0
2017-Oct-15 12:57N 35°34' E 139°52'0 0.0
2017-Oct-15 12:21N 35°34' E 139°52'0 0.0
2017-Oct-15 12:00N 35°34' E 139°52'0 0.0
2017-Oct-15 11:18N 35°34' E 139°52'0 0.0
2017-Oct-15 11:00N 35°34' E 139°52'0 0.0
2017-Oct-15 10:30N 35°34' E 139°52'0 0.0
2017-Oct-15 10:00N 35°34' E 139°52'0 0.0
2017-Oct-15 09:30N 35°34' E 139°52'0 0.1
2017-Oct-15 09:00N 35°34' E 139°52'0 0.0
2017-Oct-15 08:30N 35°34' E 139°52'0 0.0
2017-Oct-15 08:00N 35°34' E 139°52'0 0.1
2017-Oct-15 07:21N 35°34' E 139°52'0 0.0
2017-Oct-15 07:00N 35°34' E 139°52'0 0.0
2017-Oct-15 06:30N 35°34' E 139°52'0 0.1
2017-Oct-15 05:54N 35°34' E 139°52'0 0.0
2017-Oct-15 05:27N 35°34' E 139°52'0 0.1
2017-Oct-15 05:00N 35°34' E 139°52'0 0.0
2017-Oct-15 04:27N 35°34' E 139°52'0 0.0
2017-Oct-15 04:00N 35°34' E 139°52'0 0.0
2017-Oct-15 03:24N 35°34' E 139°52'0 0.0
2017-Oct-15 03:00N 35°34' E 139°52'0 0.0
2017-Oct-15 02:30N 35°34' E 139°52'0 0.0
2017-Oct-15 02:00N 35°34' E 139°52'0 0.0
2017-Oct-15 01:30N 35°34' E 139°52'0 0.0
2017-Oct-15 01:00N 35°34' E 139°52'0 0.0
2017-Oct-15 00:30N 35°34' E 139°52'0 0.0
2017-Oct-14 23:58N 35°34' E 139°52'4 9.8
2017-Oct-14 23:30N 35°30' E 139°52'815.1
2017-Oct-14 23:00N 35°24' E 139°46'612.1
2017-Oct-14 22:30N 35°18' E 139°45'612.1
2017-Oct-14 22:01N 35°12' E 139°47'816.7
2017-Oct-14 21:30N 35°04' E 139°44'917.6
2017-Oct-14 21:00N 34°58' E 139°37'1019.2
2017-Oct-14 20:29N 34°53' E 139°26'22815.8
2017-Oct-14 06:04N 33°53' E 134°59'218.9
2017-Oct-14 05:58N 33°55' E 134°59'918.4
2017-Oct-14 05:30N 34°04' E 134°58'918.5
2017-Oct-14 05:00N 34°13' E 134°58'1017.5
2017-Oct-14 04:27N 34°23' E 135°01'818.3
2017-Oct-14 04:00N 34°28' E 135°08'918.5
2017-Oct-14 03:30N 34°34' E 135°17'714.1
2017-Oct-14 03:00N 34°37' E 135°24'1 1.8
2017-Oct-14 02:25N 34°37' E 135°26'0 0.1
2017-Oct-14 01:55N 34°37' E 135°26'0 0.0
2017-Oct-14 01:19N 34°37' E 135°26'0 0.1
2017-Oct-14 00:55N 34°37' E 135°26'0 0.0
2017-Oct-14 00:25N 34°37' E 135°26'0 0.0
2017-Oct-13 23:55N 34°37' E 135°26'0 0.1
2017-Oct-13 23:25N 34°37' E 135°26'0 0.0
2017-Oct-13 22:55N 34°37' E 135°26'0 0.1
2017-Oct-13 22:19N 34°37' E 135°26'0 0.0
2017-Oct-13 22:00N 34°37' E 135°26'2 4.3
2017-Oct-13 21:30N 34°38' E 135°23'816.2
2017-Oct-13 21:00N 34°32' E 135°16'918.1
2017-Oct-13 20:30N 34°26' E 135°08'918.3
2017-Oct-13 20:00N 34°19' E 135°01'917.8
2017-Oct-13 19:30N 34°10' E 134°58'918.0
2017-Oct-13 19:00N 34°01' E 134°56'  
2017-Oct-10 13:54N 33°58' E 134°53'820.5
2017-Oct-10 13:30N 34°06' E 134°56'1121.0
2017-Oct-10 13:00N 34°16' E 134°58'1019.5
2017-Oct-10 12:30N 34°25' E 135°04'1121.1
2017-Oct-10 12:00N 34°32' E 135°14'917.6
2017-Oct-10 11:30N 34°37' E 135°22'3 6.1
2017-Oct-10 11:00N 34°37' E 135°26'0 0.1
2017-Oct-10 10:22N 34°37' E 135°26'0 0.0
2017-Oct-10 09:58N 34°37' E 135°26'0 0.0
2017-Oct-10 09:22N 34°37' E 135°26'0 0.1
2017-Oct-10 08:39N 34°37' E 135°26'0 0.0
2017-Oct-10 08:27N 34°37' E 135°26'0 0.0
2017-Oct-10 07:52N 34°37' E 135°26'0 0.0
2017-Oct-10 07:21N 34°37' E 135°26'0 0.1
2017-Oct-10 06:57N 34°37' E 135°26'0 0.0
2017-Oct-10 06:27N 34°37' E 135°26'0 0.0
2017-Oct-10 05:58N 34°37' E 135°26'0 0.0
2017-Oct-10 05:27N 34°37' E 135°26'0 0.0
2017-Oct-10 04:58N 34°37' E 135°26'0 0.0
2017-Oct-10 04:30N 34°37' E 135°26'3 6.4
2017-Oct-10 04:00N 34°37' E 135°22'918.2
2017-Oct-10 03:30N 34°31' E 135°14'918.6
2017-Oct-10 03:00N 34°24' E 135°07'918.5
2017-Oct-10 02:30N 34°17' E 134°59'1019.3
2017-Oct-10 02:00N 34°07' E 135°01'21415.9
2017-Oct-09 12:32N 34°46' E 139°16'817.1
2017-Oct-09 12:05N 34°52' E 139°21'217.1
2017-Oct-09 11:59N 34°53' E 139°23'817.0
2017-Oct-09 11:30N 34°58' E 139°30'917.6
2017-Oct-09 11:00N 35°04' E 139°39'816.7
2017-Oct-09 10:30N 35°10' E 139°45'612.2
2017-Oct-09 10:00N 35°17' E 139°45'611.9
2017-Oct-09 09:30N 35°22' E 139°42'1314.0
2017-Oct-09 08:33N 35°34' E 139°48'113.1
2017-Oct-09 08:27N 35°35' E 139°47'2 0.1
2017-Oct-07 22:50N 35°37' E 139°47'2 4.7
2017-Oct-07 22:30N 35°36' E 139°47'510.7
2017-Oct-07 22:01N 35°32' E 139°52'815.4
2017-Oct-07 21:31N 35°25' E 139°47'612.5
2017-Oct-07 21:00N 35°19' E 139°44'611.7
2017-Oct-07 20:30N 35°14' E 139°47'815.9
2017-Oct-07 20:00N 35°06' E 139°45'1020.5
2017-Oct-07 19:30N 34°59' E 139°36'  

Dump ship's entire track history